Symerton, Illinois
Current Conditions -  °F | °C
As of 4:35 AM on Saturday 01 Nov 2014 (Local Time) from KJOT Reporting Station
Overcast Overcast  
Wind Chill: 28°   Ceiling: 4200
Heat Index: 35°   Visibility: 10mi
Dew Point: 23°   Wind: 8mph
Humidity: 62%   Direction: 350°N
Pressure: 30.36"   Gusts: NA
Location:  41.3199°N, 88.0518°W
Report Text: KJOT 010935Z AUTO 35007KT 10SM OVC042 02/M05 A3036 RMK AO2 T00151050
Loading
Personal Weather Stations






























Interactive Weather Map
Tropical Storm Tracking
New forecast layout! Learn more

10-Day Weather Forecast

Advertisements
Track Severe Weather on mobile